createdAt,value
2019-03-17T00:01:29.797Z,10.30
2019-03-17T00:03:58.395Z,10.30
2019-03-17T00:06:29.501Z,10.30
2019-03-17T00:08:58.076Z,10.30
2019-03-17T00:11:26.722Z,10.30
2019-03-17T00:13:55.670Z,10.20
2019-03-17T00:16:27.865Z,10.20
2019-03-17T00:18:56.466Z,10.20
2019-03-17T00:21:25.032Z,10.20
2019-03-17T00:23:53.610Z,10.20
2019-03-17T00:26:22.261Z,10.20
2019-03-17T00:28:50.877Z,10.20
2019-03-17T00:31:24.172Z,10.10
2019-03-17T00:33:49.777Z,10.10
2019-03-17T00:36:18.431Z,10.00
2019-03-17T00:38:47.052Z,9.90
2019-03-17T00:41:17.908Z,9.90
2019-03-17T00:43:46.552Z,9.90
2019-03-17T00:46:15.219Z,9.80
2019-03-17T00:48:43.852Z,9.70
2019-03-17T00:51:12.503Z,9.60
2019-03-17T00:53:41.092Z,9.50
2019-03-17T00:56:09.686Z,9.50
2019-03-17T00:58:38.289Z,9.30
2019-03-17T01:01:06.893Z,9.20
2019-03-17T01:03:35.687Z,9.20
2019-03-17T01:06:04.371Z,9.10
2019-03-17T01:08:32.973Z,9.00
2019-03-17T01:11:01.621Z,8.90
2019-03-17T01:13:30.267Z,8.80
2019-03-17T01:15:58.843Z,8.70
2019-03-17T01:18:27.450Z,8.70
2019-03-17T01:20:56.013Z,8.60
2019-03-17T01:23:24.596Z,8.60
2019-03-17T01:25:53.185Z,8.60
2019-03-17T01:28:25.223Z,8.60
2019-03-17T01:30:53.959Z,8.60
2019-03-17T01:33:22.641Z,8.60
2019-03-17T01:35:51.295Z,8.50
2019-03-17T01:38:19.896Z,8.50
2019-03-17T01:40:48.544Z,8.50
2019-03-17T01:43:17.520Z,8.50
2019-03-17T01:45:46.122Z,8.50
2019-03-17T01:48:17.500Z,8.50
2019-03-17T01:50:46.237Z,8.50
2019-03-17T01:53:17.917Z,8.40
2019-03-17T01:55:46.524Z,8.40
2019-03-17T01:58:16.693Z,8.40
2019-03-17T02:00:45.360Z,8.40
2019-03-17T02:03:15.087Z,8.40
2019-03-17T02:05:43.717Z,8.40
2019-03-17T02:08:12.360Z,8.30
2019-03-17T02:10:40.977Z,8.40
2019-03-17T02:13:09.634Z,8.30
2019-03-17T02:15:38.240Z,8.30
2019-03-17T02:18:06.968Z,8.30
2019-03-17T02:20:35.984Z,8.30
2019-03-17T02:23:04.593Z,8.30
2019-03-17T02:25:33.193Z,8.30
2019-03-17T02:28:01.806Z,8.30
2019-03-17T02:30:30.418Z,8.30
2019-03-17T02:32:59.145Z,8.40
2019-03-17T02:35:38.735Z,8.40
2019-03-17T02:37:58.059Z,8.40
2019-03-17T02:40:29.671Z,8.30
2019-03-17T02:42:58.507Z,8.40
2019-03-17T02:45:27.154Z,8.40
2019-03-17T02:47:55.746Z,8.40
2019-03-17T02:50:24.345Z,8.30
2019-03-17T02:52:52.946Z,8.20
2019-03-17T02:55:21.587Z,8.10
2019-03-17T02:57:50.156Z,8.10
2019-03-17T03:00:18.994Z,8.00
2019-03-17T03:02:47.910Z,8.00
2019-03-17T03:05:20.307Z,8.00
2019-03-17T03:07:48.920Z,8.00
2019-03-17T03:10:17.512Z,8.00
2019-03-17T03:12:46.243Z,8.00
2019-03-17T03:15:15.410Z,8.00
2019-03-17T03:17:44.023Z,7.50
2019-03-17T03:20:12.628Z,7.00
2019-03-17T03:22:41.214Z,6.60
2019-03-17T03:25:09.827Z,6.50
2019-03-17T03:27:38.463Z,6.50
2019-03-17T03:30:07.769Z,6.40
2019-03-17T03:32:36.591Z,6.30
2019-03-17T03:35:08.565Z,6.30
2019-03-17T03:37:37.262Z,6.30
2019-03-17T03:40:06.023Z,6.30
2019-03-17T03:42:34.604Z,6.40
2019-03-17T03:45:03.244Z,6.40
2019-03-17T03:47:31.892Z,6.40
2019-03-17T03:50:00.627Z,6.40
2019-03-17T03:52:29.452Z,6.40
2019-03-17T03:54:58.377Z,6.40
2019-03-17T03:57:27.115Z,6.40
2019-03-17T03:59:55.681Z,6.30
2019-03-17T04:02:24.388Z,6.30
2019-03-17T04:04:53.338Z,6.30
2019-03-17T04:07:21.939Z,6.30
2019-03-17T04:09:50.540Z,6.20
2019-03-17T04:12:19.124Z,6.20
2019-03-17T04:14:47.704Z,6.20
2019-03-17T04:17:19.149Z,6.20
2019-03-17T04:19:47.752Z,6.20
2019-03-17T04:22:19.492Z,6.10
2019-03-17T04:24:48.133Z,6.10
2019-03-17T04:27:16.834Z,6.10
2019-03-17T04:29:45.420Z,6.10
2019-03-17T04:32:14.101Z,6.10
2019-03-17T04:34:42.810Z,6.20
2019-03-17T04:37:11.400Z,6.20
2019-03-17T04:39:39.992Z,6.20
2019-03-17T04:42:08.644Z,6.20
2019-03-17T04:44:37.416Z,6.20
2019-03-17T04:47:06.018Z,6.30
2019-03-17T04:49:34.712Z,6.30
2019-03-17T04:52:03.653Z,6.30
2019-03-17T04:54:32.352Z,6.30
2019-03-17T04:57:01.004Z,6.30
2019-03-17T04:59:29.620Z,6.40
2019-03-17T05:01:58.291Z,6.40
2019-03-17T05:04:26.908Z,6.40
2019-03-17T05:06:55.614Z,6.40
2019-03-17T05:09:24.276Z,6.40
2019-03-17T05:11:52.853Z,6.50
2019-03-17T05:14:40.834Z,6.50
2019-03-17T05:17:09.460Z,6.60
2019-03-17T05:19:38.437Z,6.60
2019-03-17T05:22:07.093Z,6.60
2019-03-17T05:24:35.723Z,6.60
2019-03-17T05:27:04.420Z,6.70
2019-03-17T05:29:33.011Z,6.70
2019-03-17T05:32:01.596Z,6.70
2019-03-17T05:34:30.269Z,6.70
2019-03-17T05:37:05.941Z,6.70
2019-03-17T05:39:29.632Z,6.70
2019-03-17T05:41:58.272Z,6.70
2019-03-17T05:44:26.873Z,6.80
2019-03-17T05:46:55.445Z,6.80
2019-03-17T05:49:24.009Z,6.70
2019-03-17T05:51:52.607Z,6.70
2019-03-17T05:54:21.197Z,6.70
2019-03-17T05:56:49.787Z,6.70
2019-03-17T05:59:19.624Z,6.70
2019-03-17T06:01:48.665Z,6.70
2019-03-17T06:04:18.077Z,6.60
2019-03-17T06:06:47.260Z,6.60
2019-03-17T06:09:18.928Z,6.60
2019-03-17T06:11:47.524Z,6.60
2019-03-17T06:14:18.580Z,6.50
2019-03-17T06:16:47.243Z,6.50
2019-03-17T06:19:15.941Z,6.50
2019-03-17T06:21:44.554Z,6.50
2019-03-17T06:24:13.231Z,6.50
2019-03-17T06:26:41.847Z,6.60
2019-03-17T06:29:10.453Z,6.60
2019-03-17T06:31:39.340Z,6.70
2019-03-17T06:34:07.923Z,6.80
2019-03-17T06:36:36.595Z,6.90
2019-03-17T06:39:07.162Z,6.90
2019-03-17T06:41:35.928Z,6.50
2019-03-17T06:44:04.896Z,5.90
2019-03-17T06:46:33.700Z,5.70
2019-03-17T06:49:03.470Z,5.50
2019-03-17T06:51:32.098Z,5.40
2019-03-17T06:54:00.706Z,5.40
2019-03-17T06:56:29.283Z,5.40
2019-03-17T06:58:57.896Z,5.50
2019-03-17T07:01:26.513Z,5.70
2019-03-17T07:03:55.269Z,5.90
2019-03-17T07:06:23.875Z,6.10
2019-03-17T07:08:52.477Z,6.10
2019-03-17T07:11:21.072Z,6.10
2019-03-17T07:13:49.718Z,6.10
2019-03-17T07:16:18.329Z,6.20
2019-03-17T07:18:47.008Z,6.20
2019-03-17T07:21:15.794Z,6.30
2019-03-17T07:23:44.385Z,6.30
2019-03-17T07:26:13.009Z,6.40
2019-03-17T07:28:41.593Z,6.30
2019-03-17T07:31:10.449Z,6.30
2019-03-17T07:33:39.045Z,6.30
2019-03-17T07:36:07.645Z,6.30
2019-03-17T07:38:36.431Z,6.40
2019-03-17T07:41:05.013Z,6.40
2019-03-17T07:43:33.627Z,6.40
2019-03-17T07:46:02.292Z,6.40
2019-03-17T07:48:32.508Z,6.50
2019-03-17T07:51:01.140Z,6.50
2019-03-17T07:53:29.724Z,6.50
2019-03-17T07:55:58.313Z,6.70
2019-03-17T07:58:26.885Z,6.70
2019-03-17T08:00:55.493Z,6.70
2019-03-17T08:03:24.076Z,6.70
2019-03-17T08:05:52.676Z,6.80
2019-03-17T08:08:21.287Z,6.80
2019-03-17T08:10:49.997Z,6.90
2019-03-17T08:13:18.564Z,6.90
2019-03-17T08:15:47.160Z,6.90
2019-03-17T08:18:16.547Z,7.00
2019-03-17T08:20:45.147Z,7.00
2019-03-17T08:23:33.625Z,7.00
2019-03-17T08:26:03.408Z,7.10
2019-03-17T08:28:32.067Z,7.20
2019-03-17T08:31:00.669Z,7.30
2019-03-17T08:33:29.265Z,7.30
2019-03-17T08:35:57.917Z,7.20
2019-03-17T08:38:27.052Z,7.20
2019-03-17T08:40:56.098Z,7.10
2019-03-17T08:43:24.800Z,7.10
2019-03-17T08:45:53.389Z,7.10
2019-03-17T08:48:21.977Z,7.20
2019-03-17T08:50:50.582Z,7.30
2019-03-17T08:53:19.185Z,7.30
2019-03-17T08:55:47.825Z,7.30
2019-03-17T08:58:16.487Z,7.40
2019-03-17T09:00:45.136Z,7.40
2019-03-17T09:03:13.979Z,7.40
2019-03-17T09:05:42.575Z,7.40
2019-03-17T09:08:11.191Z,7.20
2019-03-17T09:10:39.781Z,7.10
2019-03-17T09:13:08.428Z,7.00
2019-03-17T09:15:37.101Z,7.00
2019-03-17T09:18:06.061Z,7.20
2019-03-17T09:20:34.719Z,7.30
2019-03-17T09:23:03.373Z,7.40
2019-03-17T09:25:31.956Z,7.30
2019-03-17T09:28:00.633Z,7.40
2019-03-17T09:30:29.290Z,7.50
2019-03-17T09:32:57.965Z,7.70
2019-03-17T09:35:26.565Z,7.90
2019-03-17T09:37:55.239Z,8.00
2019-03-17T09:40:24.073Z,7.80
2019-03-17T09:42:52.652Z,7.60
2019-03-17T09:45:21.248Z,7.50
2019-03-17T09:47:50.175Z,7.60
2019-03-17T09:50:18.780Z,7.60
2019-03-17T09:52:47.427Z,7.50
2019-03-17T09:55:16.123Z,7.30
2019-03-17T09:57:44.733Z,7.30
2019-03-17T10:00:13.855Z,7.40
2019-03-17T10:02:42.576Z,7.60
2019-03-17T10:05:11.243Z,7.80
2019-03-17T10:07:42.413Z,7.50
2019-03-17T10:10:12.149Z,7.50
2019-03-17T10:12:40.805Z,7.50
2019-03-17T10:15:11.093Z,7.50
2019-03-17T10:17:39.715Z,7.60
2019-03-17T10:20:10.774Z,7.60
2019-03-17T10:22:39.889Z,7.50
2019-03-17T10:25:09.610Z,7.30
2019-03-17T10:27:38.219Z,7.60
2019-03-17T10:30:09.219Z,7.60
2019-03-17T10:32:38.156Z,7.60
2019-03-17T10:35:06.969Z,7.50
2019-03-17T10:37:35.572Z,7.40
2019-03-17T10:40:07.877Z,7.30
2019-03-17T10:42:36.541Z,7.50
2019-03-17T10:45:05.352Z,7.60
2019-03-17T10:47:34.048Z,7.60
2019-03-17T10:50:02.765Z,7.70
2019-03-17T10:52:31.349Z,7.70
2019-03-17T10:54:59.981Z,7.60
2019-03-17T10:57:28.585Z,7.60
2019-03-17T11:00:02.301Z,7.50
2019-03-17T11:02:30.901Z,7.60
2019-03-17T11:04:59.485Z,7.60
2019-03-17T11:07:28.110Z,7.70
2019-03-17T11:09:56.691Z,7.70
2019-03-17T11:12:25.273Z,7.70
2019-03-17T11:14:53.860Z,7.80
2019-03-17T11:17:41.916Z,7.80
2019-03-17T11:20:10.649Z,7.80
2019-03-17T11:22:39.556Z,8.00
2019-03-17T11:25:08.684Z,7.90
2019-03-17T11:27:37.304Z,8.00
2019-03-17T11:30:06.400Z,8.20
2019-03-17T11:32:35.080Z,8.30
2019-03-17T11:35:06.230Z,8.10
2019-03-17T11:37:34.898Z,8.00
2019-03-17T11:40:04.476Z,8.00
2019-03-17T11:42:33.151Z,7.80
2019-03-17T11:45:01.771Z,8.00
2019-03-17T11:47:30.858Z,7.90
2019-03-17T11:50:00.024Z,8.10
2019-03-17T11:52:28.699Z,8.10
2019-03-17T11:54:57.284Z,7.90
2019-03-17T11:57:25.892Z,8.00
2019-03-17T11:59:54.557Z,8.10
2019-03-17T12:02:26.830Z,8.30
2019-03-17T12:04:53.610Z,8.30
2019-03-17T12:07:22.251Z,8.30
2019-03-17T12:09:50.843Z,8.10
2019-03-17T12:12:19.546Z,8.00
2019-03-17T12:14:48.146Z,7.90
2019-03-17T12:17:16.817Z,8.00
2019-03-17T12:19:45.399Z,8.00
2019-03-17T12:22:14.009Z,7.80
2019-03-17T12:24:42.691Z,7.90
2019-03-17T12:27:11.308Z,8.20
2019-03-17T12:29:39.954Z,8.00
2019-03-17T12:32:08.576Z,8.10
2019-03-17T12:34:37.243Z,8.30
2019-03-17T12:37:05.831Z,8.10
2019-03-17T12:39:34.421Z,8.10
2019-03-17T12:42:03.572Z,8.20
2019-03-17T12:44:32.199Z,8.30
2019-03-17T12:47:00.785Z,8.30
2019-03-17T12:49:29.377Z,8.10
2019-03-17T12:51:57.982Z,7.90
2019-03-17T12:54:26.586Z,7.80
2019-03-17T12:56:55.147Z,7.80
2019-03-17T12:59:23.759Z,7.90
2019-03-17T13:01:52.336Z,7.90
2019-03-17T13:04:21.059Z,7.90
2019-03-17T13:06:49.615Z,7.90
2019-03-17T13:09:19.040Z,8.00
2019-03-17T13:11:47.629Z,7.90
2019-03-17T13:14:18.568Z,7.90
2019-03-17T13:16:47.188Z,8.10
2019-03-17T13:19:16.203Z,8.20
2019-03-17T13:21:44.807Z,8.30
2019-03-17T13:24:13.393Z,8.30
2019-03-17T13:26:42.024Z,8.40
2019-03-17T13:29:16.662Z,8.40
2019-03-17T13:31:45.244Z,8.30
2019-03-17T13:34:15.464Z,8.30
2019-03-17T13:36:46.568Z,8.30
2019-03-17T13:39:16.055Z,8.40
2019-03-17T13:41:44.662Z,8.50
2019-03-17T13:44:13.280Z,8.40
2019-03-17T13:46:41.873Z,8.20
2019-03-17T13:49:10.448Z,8.00
2019-03-17T13:51:39.051Z,8.00
2019-03-17T13:54:07.959Z,8.00
2019-03-17T13:56:36.580Z,8.00
2019-03-17T13:59:06.597Z,8.20
2019-03-17T14:01:35.300Z,8.20
2019-03-17T14:04:03.952Z,8.20
2019-03-17T14:06:34.968Z,8.10
2019-03-17T14:09:06.988Z,8.20
2019-03-17T14:11:35.688Z,8.20
2019-03-17T14:14:06.739Z,7.90
2019-03-17T14:16:35.436Z,7.80
2019-03-17T14:19:04.177Z,7.70
2019-03-17T14:21:32.860Z,7.70
2019-03-17T14:24:02.863Z,7.70
2019-03-17T14:26:31.525Z,7.80
2019-03-17T14:29:03.533Z,8.00
2019-03-17T14:31:32.131Z,8.20
2019-03-17T14:34:00.732Z,8.30
2019-03-17T14:36:29.324Z,8.10
2019-03-17T14:38:57.903Z,8.20
2019-03-17T14:41:26.484Z,8.50
2019-03-17T14:43:55.081Z,8.40
2019-03-17T14:46:23.757Z,8.50
2019-03-17T14:48:52.352Z,8.60
2019-03-17T14:51:23.342Z,8.90
2019-03-17T14:53:51.951Z,9.10
2019-03-17T14:56:20.612Z,9.00
2019-03-17T14:58:49.235Z,8.70
2019-03-17T15:01:17.880Z,8.80
2019-03-17T15:03:46.489Z,8.80
2019-03-17T15:06:15.398Z,8.80
2019-03-17T15:08:44.328Z,8.60
2019-03-17T15:11:12.977Z,8.40
2019-03-17T15:13:41.616Z,8.40
2019-03-17T15:16:10.221Z,8.20
2019-03-17T15:18:39.101Z,8.20
2019-03-17T15:21:07.992Z,8.40
2019-03-17T15:23:36.588Z,8.40
2019-03-17T15:26:05.275Z,8.50
2019-03-17T15:28:36.239Z,8.70
2019-03-17T15:31:11.550Z,8.60
2019-03-17T15:33:35.161Z,8.40
2019-03-17T15:36:07.839Z,8.30
2019-03-17T15:38:55.785Z,8.20
2019-03-17T15:41:43.742Z,8.20
2019-03-17T15:44:12.340Z,8.20
2019-03-17T15:46:40.935Z,8.20
2019-03-17T15:49:09.584Z,8.20
2019-03-17T15:51:38.161Z,8.10
2019-03-17T15:54:06.762Z,8.20
2019-03-17T15:56:35.380Z,8.50
2019-03-17T15:59:05.161Z,8.70
2019-03-17T16:01:33.815Z,8.70
2019-03-17T16:04:02.649Z,8.40
2019-03-17T16:06:31.358Z,8.30
2019-03-17T16:08:59.968Z,8.30
2019-03-17T16:11:31.106Z,8.20
2019-03-17T16:13:58.922Z,8.00
2019-03-17T16:16:27.575Z,8.00
2019-03-17T16:20:09.765Z,7.90
2019-03-17T16:22:39.282Z,7.90
2019-03-17T16:25:08.454Z,8.00
2019-03-17T16:27:37.111Z,8.00
2019-03-17T16:30:07.359Z,7.90
2019-03-17T16:32:36.009Z,8.00
2019-03-17T16:35:52.396Z,8.00
2019-03-17T16:38:20.999Z,7.90
2019-03-17T16:40:49.881Z,7.80
2019-03-17T16:43:18.511Z,7.80
2019-03-17T16:45:47.129Z,7.70
2019-03-17T16:48:15.787Z,7.70
2019-03-17T16:50:44.417Z,7.60
2019-03-17T16:53:13.147Z,7.60
2019-03-17T16:55:42.053Z,7.60
2019-03-17T16:58:18.251Z,7.60
2019-03-17T17:00:47.040Z,7.60
2019-03-17T17:03:15.760Z,7.60
2019-03-17T17:05:44.368Z,7.60
2019-03-17T17:08:13.013Z,7.70
2019-03-17T17:10:49.899Z,7.60
2019-03-17T17:13:11.910Z,7.60
2019-03-17T17:15:42.196Z,7.60
2019-03-17T17:18:10.815Z,7.50
2019-03-17T17:20:39.789Z,7.40
2019-03-17T17:23:08.452Z,7.40
2019-03-17T17:25:37.132Z,7.40
2019-03-17T17:28:05.733Z,7.30
2019-03-17T17:30:34.369Z,7.40
2019-03-17T17:33:06.381Z,7.30
2019-03-17T17:35:35.114Z,7.30
2019-03-17T17:38:05.650Z,7.30
2019-03-17T17:40:34.450Z,7.30
2019-03-17T17:43:06.153Z,7.20
2019-03-17T17:45:35.169Z,7.20
2019-03-17T17:48:03.951Z,7.20
2019-03-17T17:50:32.624Z,7.10
2019-03-17T17:53:01.453Z,7.20
2019-03-17T17:55:30.064Z,7.10
2019-03-17T17:57:59.143Z,7.10
2019-03-17T18:00:30.667Z,7.10
2019-03-17T18:02:59.529Z,7.10
2019-03-17T18:05:28.397Z,7.10
2019-03-17T18:08:04.706Z,7.10
2019-03-17T18:10:35.597Z,7.10
2019-03-17T18:13:05.794Z,7.00
2019-03-17T18:15:34.393Z,7.00
2019-03-17T18:18:04.328Z,7.00
2019-03-17T18:20:33.443Z,7.00
2019-03-17T18:23:02.228Z,7.00
2019-03-17T18:25:32.390Z,7.00
2019-03-17T18:28:01.144Z,7.00
2019-03-17T18:30:29.817Z,7.10
2019-03-17T18:32:58.439Z,7.10
2019-03-17T18:35:27.173Z,6.60
2019-03-17T18:37:55.871Z,6.40
2019-03-17T18:40:24.543Z,6.50
2019-03-17T18:42:53.242Z,6.50
2019-03-17T18:45:21.881Z,6.50
2019-03-17T18:47:50.587Z,6.60
2019-03-17T18:50:20.936Z,6.60
2019-03-17T18:52:49.533Z,6.70
2019-03-17T18:55:18.143Z,6.70
2019-03-17T18:57:49.300Z,6.70
2019-03-17T19:00:18.229Z,6.60
2019-03-17T19:02:46.843Z,6.60
2019-03-17T19:05:19.995Z,6.60
2019-03-17T19:07:48.580Z,6.60
2019-03-17T19:10:17.468Z,6.50
2019-03-17T19:12:46.470Z,6.60
2019-03-17T19:15:15.321Z,6.50
2019-03-17T19:17:43.932Z,6.50
2019-03-17T19:20:13.776Z,6.50
2019-03-17T19:22:42.428Z,6.50
2019-03-17T19:25:15.279Z,6.50
2019-03-17T19:27:43.917Z,6.50
2019-03-17T19:30:15.466Z,6.40
2019-03-17T19:32:44.261Z,6.40
2019-03-17T19:35:13.066Z,6.40
2019-03-17T19:37:41.679Z,6.40
2019-03-17T19:40:11.725Z,6.40
2019-03-17T19:42:40.343Z,6.40
2019-03-17T19:45:09.156Z,6.40
2019-03-17T19:47:37.732Z,6.40
2019-03-17T19:50:06.772Z,6.40
2019-03-17T19:52:35.655Z,6.40
2019-03-17T19:55:09.880Z,6.30
2019-03-17T19:57:38.455Z,6.30
2019-03-17T20:00:08.209Z,6.30
2019-03-17T20:02:39.145Z,6.30
2019-03-17T20:05:07.755Z,6.30
2019-03-17T20:07:36.416Z,6.30
2019-03-17T20:10:05.825Z,6.30
2019-03-17T20:12:34.408Z,6.40
2019-03-17T20:15:05.390Z,6.40
2019-03-17T20:17:34.110Z,6.40
2019-03-17T20:20:06.372Z,6.40
2019-03-17T20:22:35.357Z,6.40
2019-03-17T20:25:07.346Z,6.40
2019-03-17T20:27:36.036Z,6.40
2019-03-17T20:30:04.912Z,6.40
2019-03-17T20:32:38.309Z,6.30
2019-03-17T20:35:08.336Z,6.30
2019-03-17T20:37:37.077Z,6.20
2019-03-17T20:40:06.196Z,6.20
2019-03-17T20:42:34.800Z,6.20
2019-03-17T20:45:04.826Z,6.10
2019-03-17T20:47:33.464Z,6.10
2019-03-17T20:50:02.188Z,6.10
2019-03-17T20:52:30.755Z,6.10
2019-03-17T20:54:59.407Z,6.10
2019-03-17T20:57:28.047Z,6.10
2019-03-17T20:59:56.707Z,6.00
2019-03-17T21:02:25.381Z,6.00
2019-03-17T21:04:53.951Z,6.10
2019-03-17T21:07:23.246Z,6.00
2019-03-17T21:09:51.860Z,6.00
2019-03-17T21:12:20.572Z,6.00
2019-03-17T21:14:49.381Z,6.00
2019-03-17T21:17:18.010Z,6.00
2019-03-17T21:19:46.600Z,6.00
2019-03-17T21:22:15.309Z,6.00
2019-03-17T21:24:43.921Z,6.10
2019-03-17T21:27:12.521Z,6.00
2019-03-17T21:29:41.244Z,6.10
2019-03-17T21:32:09.901Z,6.10
2019-03-17T21:34:38.517Z,6.10
2019-03-17T21:37:06.880Z,6.10
2019-03-17T21:39:48.672Z,6.10
2019-03-17T21:42:17.485Z,6.10
2019-03-17T21:44:46.047Z,6.10
2019-03-17T21:47:17.664Z,6.20
2019-03-17T21:49:46.276Z,6.20
2019-03-17T21:52:17.883Z,6.20
2019-03-17T21:54:46.814Z,6.20
2019-03-17T21:57:21.071Z,6.20
2019-03-17T21:59:50.016Z,6.30
2019-03-17T22:02:20.293Z,6.30
2019-03-17T22:04:48.969Z,6.40
2019-03-17T22:07:17.868Z,6.40
2019-03-17T22:09:46.448Z,6.40
2019-03-17T22:12:15.272Z,6.40
2019-03-17T22:14:43.871Z,6.40
2019-03-17T22:17:12.487Z,6.50
2019-03-17T22:19:41.084Z,6.50
2019-03-17T22:22:09.729Z,6.50
2019-03-17T22:24:38.332Z,6.50
2019-03-17T22:27:06.925Z,6.60
2019-03-17T22:29:35.527Z,6.60
2019-03-17T22:32:06.805Z,6.60
2019-03-17T22:34:35.423Z,6.60
2019-03-17T22:37:05.315Z,6.70
2019-03-17T22:39:33.998Z,6.80
2019-03-17T22:42:02.826Z,6.80
2019-03-17T22:44:31.603Z,6.80
2019-03-17T22:47:00.301Z,6.90
2019-03-17T22:49:28.940Z,6.90
2019-03-17T22:51:57.520Z,6.90
2019-03-17T22:54:26.183Z,6.90
2019-03-17T22:56:54.799Z,7.00
2019-03-17T22:59:23.428Z,6.90
2019-03-17T23:01:52.034Z,6.90
2019-03-17T23:04:22.126Z,7.00
2019-03-17T23:06:50.909Z,7.00
2019-03-17T23:09:19.520Z,7.00
2019-03-17T23:11:48.243Z,7.10
2019-03-17T23:14:17.039Z,7.00
2019-03-17T23:16:45.613Z,7.10
2019-03-17T23:19:16.388Z,7.10
2019-03-17T23:21:45.354Z,7.10
2019-03-17T23:24:13.939Z,7.10
2019-03-17T23:26:42.528Z,7.20
2019-03-17T23:29:11.557Z,7.20
2019-03-17T23:31:40.140Z,7.20
2019-03-17T23:34:08.799Z,7.20
2019-03-17T23:36:37.401Z,7.20
2019-03-17T23:39:06.744Z,7.20
2019-03-17T23:41:35.393Z,7.20
2019-03-17T23:44:06.140Z,7.20
2019-03-17T23:46:34.744Z,7.20
2019-03-17T23:49:04.899Z,7.30
2019-03-17T23:51:33.588Z,7.30
2019-03-17T23:54:02.279Z,7.30
2019-03-17T23:56:32.535Z,7.30
2019-03-17T23:59:01.131Z,7.30
